sensor_id;sensor_type;location;lat;lon;timestamp;P1;durP1;ratioP1;P2;durP2;ratioP2
45366;SDS011;31100;55.848;37.636;2023-03-20T00:00:49;16.48;;;9.25;;
45366;SDS011;31100;55.848;37.636;2023-03-20T00:03:16;19.52;;;9.05;;
45366;SDS011;31100;55.848;37.636;2023-03-20T00:05:42;16.48;;;8.00;;
45366;SDS011;31100;55.848;37.636;2023-03-20T00:08:07;13.55;;;8.23;;
45366;SDS011;31100;55.848;37.636;2023-03-20T00:10:40;14.50;;;8.55;;
45366;SDS011;31100;55.848;37.636;2023-03-20T00:15:37;14.73;;;7.63;;
45366;SDS011;31100;55.848;37.636;2023-03-20T00:18:16;12.75;;;7.63;;
45366;SDS011;31100;55.848;37.636;2023-03-20T00:20:48;12.80;;;7.50;;
45366;SDS011;31100;55.848;37.636;2023-03-20T00:23:14;15.27;;;7.93;;
45366;SDS011;31100;55.848;37.636;2023-03-20T00:25:40;14.00;;;7.72;;
45366;SDS011;31100;55.848;37.636;2023-03-20T00:30:51;14.15;;;7.57;;
45366;SDS011;31100;55.848;37.636;2023-03-20T00:33:17;13.55;;;7.38;;
45366;SDS011;31100;55.848;37.636;2023-03-20T00:35:42;15.20;;;8.05;;
45366;SDS011;31100;55.848;37.636;2023-03-20T00:38:08;14.55;;;7.95;;
45366;SDS011;31100;55.848;37.636;2023-03-20T00:40:33;15.00;;;8.82;;
45366;SDS011;31100;55.848;37.636;2023-03-20T00:43:00;13.75;;;8.57;;
45366;SDS011;31100;55.848;37.636;2023-03-20T00:45:27;16.98;;;9.07;;
45366;SDS011;31100;55.848;37.636;2023-03-20T00:47:53;12.57;;;7.65;;
45366;SDS011;31100;55.848;37.636;2023-03-20T00:50:20;14.73;;;7.78;;
45366;SDS011;31100;55.848;37.636;2023-03-20T00:52:48;14.80;;;8.50;;
45366;SDS011;31100;55.848;37.636;2023-03-20T00:55:14;14.10;;;7.88;;
45366;SDS011;31100;55.848;37.636;2023-03-20T01:00:42;13.73;;;8.38;;
45366;SDS011;31100;55.848;37.636;2023-03-20T01:03:21;14.70;;;7.68;;
45366;SDS011;31100;55.848;37.636;2023-03-20T01:05:48;14.50;;;7.45;;
45366;SDS011;31100;55.848;37.636;2023-03-20T01:08:17;14.25;;;7.72;;
45366;SDS011;31100;55.848;37.636;2023-03-20T01:10:44;15.43;;;8.73;;
45366;SDS011;31100;55.848;37.636;2023-03-20T01:13:16;15.60;;;8.82;;
45366;SDS011;31100;55.848;37.636;2023-03-20T01:15:45;14.07;;;8.23;;
45366;SDS011;31100;55.848;37.636;2023-03-20T01:18:13;15.88;;;8.35;;
45366;SDS011;31100;55.848;37.636;2023-03-20T01:20:40;14.75;;;8.23;;
45366;SDS011;31100;55.848;37.636;2023-03-20T01:23:05;18.52;;;8.90;;
45366;SDS011;31100;55.848;37.636;2023-03-20T01:25:31;13.15;;;8.07;;
45366;SDS011;31100;55.848;37.636;2023-03-20T01:27:56;15.15;;;9.13;;
45366;SDS011;31100;55.848;37.636;2023-03-20T01:30:29;19.60;;;9.90;;
45366;SDS011;31100;55.848;37.636;2023-03-20T01:32:56;16.63;;;9.07;;
45366;SDS011;31100;55.848;37.636;2023-03-20T01:35:25;18.92;;;9.13;;
45366;SDS011;31100;55.848;37.636;2023-03-20T01:37:51;19.13;;;10.05;;
45366;SDS011;31100;55.848;37.636;2023-03-20T01:42:46;15.13;;;9.20;;
45366;SDS011;31100;55.848;37.636;2023-03-20T01:45:15;19.40;;;9.85;;
45366;SDS011;31100;55.848;37.636;2023-03-20T01:47:42;19.55;;;9.75;;
45366;SDS011;31100;55.848;37.636;2023-03-20T01:50:27;15.38;;;8.77;;
45366;SDS011;31100;55.848;37.636;2023-03-20T01:53:09;18.23;;;10.50;;
45366;SDS011;31100;55.848;37.636;2023-03-20T01:55:38;18.50;;;11.18;;
45366;SDS011;31100;55.848;37.636;2023-03-20T01:58:06;21.27;;;11.38;;
45366;SDS011;31100;55.848;37.636;2023-03-20T02:00:33;20.75;;;11.50;;
45366;SDS011;31100;55.848;37.636;2023-03-20T02:03:00;19.92;;;10.02;;
45366;SDS011;31100;55.848;37.636;2023-03-20T02:05:26;20.55;;;11.40;;
45366;SDS011;31100;55.848;37.636;2023-03-20T02:07:58;19.00;;;10.52;;
45366;SDS011;31100;55.848;37.636;2023-03-20T02:10:30;20.48;;;10.55;;
45366;SDS011;31100;55.848;37.636;2023-03-20T02:12:56;15.48;;;9.70;;
45366;SDS011;31100;55.848;37.636;2023-03-20T02:15:24;19.35;;;9.40;;
45366;SDS011;31100;55.848;37.636;2023-03-20T02:17:51;18.13;;;9.32;;
45366;SDS011;31100;55.848;37.636;2023-03-20T02:28:25;16.27;;;9.82;;
45366;SDS011;31100;55.848;37.636;2023-03-20T02:33:54;16.98;;;9.10;;
45366;SDS011;31100;55.848;37.636;2023-03-20T02:39:21;16.27;;;8.52;;
45366;SDS011;31100;55.848;37.636;2023-03-20T02:44:45;12.77;;;7.10;;
45366;SDS011;31100;55.848;37.636;2023-03-20T02:50:15;15.23;;;6.93;;
45366;SDS011;31100;55.848;37.636;2023-03-20T02:53:25;14.63;;;7.25;;
45366;SDS011;31100;55.848;37.636;2023-03-20T02:55:55;15.60;;;7.47;;
45366;SDS011;31100;55.848;37.636;2023-03-20T02:58:22;16.05;;;7.10;;
45366;SDS011;31100;55.848;37.636;2023-03-20T03:03:28;13.10;;;7.28;;
45366;SDS011;31100;55.848;37.636;2023-03-20T03:09:08;13.10;;;6.78;;
45366;SDS011;31100;55.848;37.636;2023-03-20T03:11:38;13.85;;;7.10;;
45366;SDS011;31100;55.848;37.636;2023-03-20T03:14:08;11.13;;;6.90;;
45366;SDS011;31100;55.848;37.636;2023-03-20T03:16:39;12.60;;;7.07;;
45366;SDS011;31100;55.848;37.636;2023-03-20T03:19:12;11.30;;;6.40;;
45366;SDS011;31100;55.848;37.636;2023-03-20T03:21:42;19.58;;;8.68;;
45366;SDS011;31100;55.848;37.636;2023-03-20T03:24:22;16.85;;;7.35;;
45366;SDS011;31100;55.848;37.636;2023-03-20T03:26:53;11.82;;;6.85;;
45366;SDS011;31100;55.848;37.636;2023-03-20T03:29:20;13.80;;;7.72;;
45366;SDS011;31100;55.848;37.636;2023-03-20T03:31:48;15.90;;;7.13;;
45366;SDS011;31100;55.848;37.636;2023-03-20T03:34:15;13.05;;;6.97;;
45366;SDS011;31100;55.848;37.636;2023-03-20T03:41:52;12.13;;;6.55;;
45366;SDS011;31100;55.848;37.636;2023-03-20T03:49:30;12.18;;;7.90;;
45366;SDS011;31100;55.848;37.636;2023-03-20T03:52:02;13.95;;;7.10;;
45366;SDS011;31100;55.848;37.636;2023-03-20T03:54:32;13.52;;;6.93;;
45366;SDS011;31100;55.848;37.636;2023-03-20T03:57:01;14.70;;;7.47;;
45366;SDS011;31100;55.848;37.636;2023-03-20T03:59:37;18.85;;;8.43;;
45366;SDS011;31100;55.848;37.636;2023-03-20T04:02:05;15.60;;;8.52;;
45366;SDS011;31100;55.848;37.636;2023-03-20T04:04:33;12.30;;;7.10;;
45366;SDS011;31100;55.848;37.636;2023-03-20T04:07:00;10.18;;;6.38;;
45366;SDS011;31100;55.848;37.636;2023-03-20T04:09:25;13.48;;;7.68;;
45366;SDS011;31100;55.848;37.636;2023-03-20T04:11:54;12.40;;;7.00;;
45366;SDS011;31100;55.848;37.636;2023-03-20T04:14:20;14.13;;;6.90;;
45366;SDS011;31100;55.848;37.636;2023-03-20T04:16:46;16.90;;;8.27;;
45366;SDS011;31100;55.848;37.636;2023-03-20T04:19:12;14.52;;;6.63;;
45366;SDS011;31100;55.848;37.636;2023-03-20T04:21:37;14.02;;;7.35;;
45366;SDS011;31100;55.848;37.636;2023-03-20T04:24:03;12.07;;;7.28;;
45366;SDS011;31100;55.848;37.636;2023-03-20T04:26:29;12.68;;;8.00;;
45366;SDS011;31100;55.848;37.636;2023-03-20T04:28:54;14.15;;;8.68;;
45366;SDS011;31100;55.848;37.636;2023-03-20T04:31:20;13.73;;;6.63;;
45366;SDS011;31100;55.848;37.636;2023-03-20T04:33:46;13.43;;;7.63;;
45366;SDS011;31100;55.848;37.636;2023-03-20T04:36:11;15.77;;;7.88;;
45366;SDS011;31100;55.848;37.636;2023-03-20T04:38:37;16.50;;;7.55;;
45366;SDS011;31100;55.848;37.636;2023-03-20T04:41:03;14.80;;;8.20;;
45366;SDS011;31100;55.848;37.636;2023-03-20T04:43:29;13.15;;;7.03;;
45366;SDS011;31100;55.848;37.636;2023-03-20T04:45:55;18.52;;;9.13;;
45366;SDS011;31100;55.848;37.636;2023-03-20T04:48:20;21.98;;;11.77;;
45366;SDS011;31100;55.848;37.636;2023-03-20T04:50:46;14.85;;;9.27;;
45366;SDS011;31100;55.848;37.636;2023-03-20T04:53:13;15.55;;;8.52;;
45366;SDS011;31100;55.848;37.636;2023-03-20T04:55:39;15.10;;;8.63;;
45366;SDS011;31100;55.848;37.636;2023-03-20T04:58:04;17.10;;;9.13;;
45366;SDS011;31100;55.848;37.636;2023-03-20T05:00:30;15.48;;;8.77;;
45366;SDS011;31100;55.848;37.636;2023-03-20T05:02:56;20.23;;;9.10;;
45366;SDS011;31100;55.848;37.636;2023-03-20T05:05:22;24.25;;;13.15;;
45366;SDS011;31100;55.848;37.636;2023-03-20T05:07:47;21.90;;;10.93;;
45366;SDS011;31100;55.848;37.636;2023-03-20T05:10:13;18.98;;;10.82;;
45366;SDS011;31100;55.848;37.636;2023-03-20T05:12:39;17.80;;;9.13;;
45366;SDS011;31100;55.848;37.636;2023-03-20T05:15:05;17.42;;;8.60;;
45366;SDS011;31100;55.848;37.636;2023-03-20T05:17:34;14.82;;;9.15;;
45366;SDS011;31100;55.848;37.636;2023-03-20T05:20:00;19.98;;;9.27;;
45366;SDS011;31100;55.848;37.636;2023-03-20T05:22:26;14.90;;;7.82;;
45366;SDS011;31100;55.848;37.636;2023-03-20T05:24:51;13.43;;;8.32;;
45366;SDS011;31100;55.848;37.636;2023-03-20T05:27:17;13.85;;;8.13;;
45366;SDS011;31100;55.848;37.636;2023-03-20T05:29:42;16.30;;;9.20;;
45366;SDS011;31100;55.848;37.636;2023-03-20T05:32:08;21.52;;;8.23;;
45366;SDS011;31100;55.848;37.636;2023-03-20T05:34:34;18.20;;;8.05;;
45366;SDS011;31100;55.848;37.636;2023-03-20T05:36:59;14.75;;;8.27;;
45366;SDS011;31100;55.848;37.636;2023-03-20T05:39:25;32.38;;;8.95;;
45366;SDS011;31100;55.848;37.636;2023-03-20T05:41:50;15.40;;;6.45;;
45366;SDS011;31100;55.848;37.636;2023-03-20T05:44:16;15.38;;;6.57;;
45366;SDS011;31100;55.848;37.636;2023-03-20T05:46:41;15.07;;;6.13;;
45366;SDS011;31100;55.848;37.636;2023-03-20T05:49:07;20.15;;;8.88;;
45366;SDS011;31100;55.848;37.636;2023-03-20T05:51:32;11.07;;;6.40;;
45366;SDS011;31100;55.848;37.636;2023-03-20T05:53:58;13.38;;;6.10;;
45366;SDS011;31100;55.848;37.636;2023-03-20T05:56:23;11.57;;;5.65;;
45366;SDS011;31100;55.848;37.636;2023-03-20T05:58:49;12.88;;;5.38;;
45366;SDS011;31100;55.848;37.636;2023-03-20T06:01:16;12.52;;;5.97;;
45366;SDS011;31100;55.848;37.636;2023-03-20T06:03:45;9.60;;;4.88;;
45366;SDS011;31100;55.848;37.636;2023-03-20T06:06:12;9.68;;;4.63;;
45366;SDS011;31100;55.848;37.636;2023-03-20T06:08:37;9.80;;;5.05;;
45366;SDS011;31100;55.848;37.636;2023-03-20T06:11:03;10.93;;;4.93;;
45366;SDS011;31100;55.848;37.636;2023-03-20T06:13:28;9.77;;;4.82;;
45366;SDS011;31100;55.848;37.636;2023-03-20T06:15:54;11.15;;;4.50;;
45366;SDS011;31100;55.848;37.636;2023-03-20T06:18:20;10.00;;;5.07;;
45366;SDS011;31100;55.848;37.636;2023-03-20T06:20:45;9.43;;;4.78;;
45366;SDS011;31100;55.848;37.636;2023-03-20T06:23:16;9.65;;;5.05;;
45366;SDS011;31100;55.848;37.636;2023-03-20T06:25:42;11.27;;;4.60;;
45366;SDS011;31100;55.848;37.636;2023-03-20T06:28:07;10.25;;;4.50;;
45366;SDS011;31100;55.848;37.636;2023-03-20T06:30:33;27.70;;;6.85;;
45366;SDS011;31100;55.848;37.636;2023-03-20T06:32:58;16.30;;;5.00;;
45366;SDS011;31100;55.848;37.636;2023-03-20T06:35:24;11.43;;;4.97;;
45366;SDS011;31100;55.848;37.636;2023-03-20T06:37:49;9.77;;;4.28;;
45366;SDS011;31100;55.848;37.636;2023-03-20T06:40:15;9.98;;;4.55;;
45366;SDS011;31100;55.848;37.636;2023-03-20T06:42:40;21.00;;;6.63;;
45366;SDS011;31100;55.848;37.636;2023-03-20T06:45:06;20.58;;;6.50;;
45366;SDS011;31100;55.848;37.636;2023-03-20T06:47:32;11.00;;;6.60;;
45366;SDS011;31100;55.848;37.636;2023-03-20T06:49:57;8.98;;;5.20;;
45366;SDS011;31100;55.848;37.636;2023-03-20T06:52:23;12.88;;;4.88;;
45366;SDS011;31100;55.848;37.636;2023-03-20T06:54:49;9.18;;;4.30;;
45366;SDS011;31100;55.848;37.636;2023-03-20T06:57:16;9.10;;;4.63;;
45366;SDS011;31100;55.848;37.636;2023-03-20T06:59:42;11.68;;;4.55;;
45366;SDS011;31100;55.848;37.636;2023-03-20T07:02:08;10.82;;;4.63;;
45366;SDS011;31100;55.848;37.636;2023-03-20T07:04:35;12.75;;;4.90;;
45366;SDS011;31100;55.848;37.636;2023-03-20T07:07:01;13.73;;;5.25;;
45366;SDS011;31100;55.848;37.636;2023-03-20T07:09:27;13.77;;;4.90;;
45366;SDS011;31100;55.848;37.636;2023-03-20T07:11:52;12.55;;;5.18;;
45366;SDS011;31100;55.848;37.636;2023-03-20T07:14:18;10.48;;;5.28;;
45366;SDS011;31100;55.848;37.636;2023-03-20T07:16:44;12.27;;;5.63;;
45366;SDS011;31100;55.848;37.636;2023-03-20T07:19:09;15.32;;;4.85;;
45366;SDS011;31100;55.848;37.636;2023-03-20T07:21:37;11.27;;;5.18;;
45366;SDS011;31100;55.848;37.636;2023-03-20T07:24:03;9.65;;;4.72;;
45366;SDS011;31100;55.848;37.636;2023-03-20T07:26:28;11.80;;;4.20;;
45366;SDS011;31100;55.848;37.636;2023-03-20T07:28:54;12.38;;;4.25;;
45366;SDS011;31100;55.848;37.636;2023-03-20T07:31:23;7.10;;;3.80;;
45366;SDS011;31100;55.848;37.636;2023-03-20T07:33:50;12.55;;;4.18;;
45366;SDS011;31100;55.848;37.636;2023-03-20T07:36:16;8.82;;;4.00;;
45366;SDS011;31100;55.848;37.636;2023-03-20T07:38:42;12.80;;;3.90;;
45366;SDS011;31100;55.848;37.636;2023-03-20T07:41:07;11.82;;;4.10;;
45366;SDS011;31100;55.848;37.636;2023-03-20T07:43:33;13.23;;;5.28;;
45366;SDS011;31100;55.848;37.636;2023-03-20T07:46:05;13.40;;;4.50;;
45366;SDS011;31100;55.848;37.636;2023-03-20T07:48:31;12.77;;;4.50;;
45366;SDS011;31100;55.848;37.636;2023-03-20T07:50:57;12.95;;;5.03;;
45366;SDS011;31100;55.848;37.636;2023-03-20T07:53:23;13.43;;;5.35;;
45366;SDS011;31100;55.848;37.636;2023-03-20T07:55:48;14.15;;;5.40;;
45366;SDS011;31100;55.848;37.636;2023-03-20T07:58:14;14.63;;;4.97;;
45366;SDS011;31100;55.848;37.636;2023-03-20T08:00:39;8.07;;;4.30;;
45366;SDS011;31100;55.848;37.636;2023-03-20T08:03:05;18.65;;;4.78;;
45366;SDS011;31100;55.848;37.636;2023-03-20T08:05:31;14.07;;;4.70;;
45366;SDS011;31100;55.848;37.636;2023-03-20T08:07:57;14.15;;;5.47;;
45366;SDS011;31100;55.848;37.636;2023-03-20T08:10:22;14.13;;;5.22;;
45366;SDS011;31100;55.848;37.636;2023-03-20T08:12:48;23.30;;;5.57;;
45366;SDS011;31100;55.848;37.636;2023-03-20T08:15:13;10.63;;;5.05;;
45366;SDS011;31100;55.848;37.636;2023-03-20T08:17:43;16.10;;;5.25;;
45366;SDS011;31100;55.848;37.636;2023-03-20T08:20:10;14.00;;;5.25;;
45366;SDS011;31100;55.848;37.636;2023-03-20T08:22:37;17.02;;;5.50;;
45366;SDS011;31100;55.848;37.636;2023-03-20T08:25:03;11.65;;;4.78;;
45366;SDS011;31100;55.848;37.636;2023-03-20T08:27:29;13.98;;;5.32;;
45366;SDS011;31100;55.848;37.636;2023-03-20T08:29:55;16.02;;;6.40;;
45366;SDS011;31100;55.848;37.636;2023-03-20T08:32:20;15.65;;;5.88;;
45366;SDS011;31100;55.848;37.636;2023-03-20T08:34:46;19.02;;;6.63;;
45366;SDS011;31100;55.848;37.636;2023-03-20T08:37:11;16.90;;;6.28;;
45366;SDS011;31100;55.848;37.636;2023-03-20T08:39:38;19.90;;;6.53;;
45366;SDS011;31100;55.848;37.636;2023-03-20T08:42:04;15.65;;;5.95;;
45366;SDS011;31100;55.848;37.636;2023-03-20T08:44:30;14.00;;;5.63;;
45366;SDS011;31100;55.848;37.636;2023-03-20T08:46:56;12.73;;;5.70;;
45366;SDS011;31100;55.848;37.636;2023-03-20T08:49:22;19.80;;;5.78;;
45366;SDS011;31100;55.848;37.636;2023-03-20T08:51:47;14.15;;;5.22;;
45366;SDS011;31100;55.848;37.636;2023-03-20T08:54:13;11.75;;;4.60;;
45366;SDS011;31100;55.848;37.636;2023-03-20T08:56:40;12.25;;;4.35;;
45366;SDS011;31100;55.848;37.636;2023-03-20T08:59:06;7.30;;;4.28;;
45366;SDS011;31100;55.848;37.636;2023-03-20T09:01:31;10.90;;;5.13;;
45366;SDS011;31100;55.848;37.636;2023-03-20T09:03:57;12.50;;;5.38;;
45366;SDS011;31100;55.848;37.636;2023-03-20T09:06:22;10.77;;;5.25;;
45366;SDS011;31100;55.848;37.636;2023-03-20T09:08:48;11.57;;;5.15;;
45366;SDS011;31100;55.848;37.636;2023-03-20T09:11:13;13.45;;;4.78;;
45366;SDS011;31100;55.848;37.636;2023-03-20T09:13:39;11.48;;;4.95;;
45366;SDS011;31100;55.848;37.636;2023-03-20T09:16:04;12.35;;;4.72;;
45366;SDS011;31100;55.848;37.636;2023-03-20T09:18:30;8.60;;;4.93;;
45366;SDS011;31100;55.848;37.636;2023-03-20T09:20:56;8.90;;;3.88;;
45366;SDS011;31100;55.848;37.636;2023-03-20T09:23:22;11.32;;;3.75;;
45366;SDS011;31100;55.848;37.636;2023-03-20T09:25:47;18.92;;;4.82;;
45366;SDS011;31100;55.848;37.636;2023-03-20T09:28:13;34.75;;;18.98;;
45366;SDS011;31100;55.848;37.636;2023-03-20T09:30:38;9.80;;;4.97;;
45366;SDS011;31100;55.848;37.636;2023-03-20T09:33:05;11.90;;;5.15;;
45366;SDS011;31100;55.848;37.636;2023-03-20T09:35:31;20.05;;;9.15;;
45366;SDS011;31100;55.848;37.636;2023-03-20T09:37:56;11.27;;;5.30;;
45366;SDS011;31100;55.848;37.636;2023-03-20T09:40:56;12.88;;;5.60;;
45366;SDS011;31100;55.848;37.636;2023-03-20T09:43:31;12.05;;;5.25;;
45366;SDS011;31100;55.848;37.636;2023-03-20T09:49:11;17.30;;;8.45;;
45366;SDS011;31100;55.848;37.636;2023-03-20T09:54:26;12.30;;;5.70;;
45366;SDS011;31100;55.848;37.636;2023-03-20T09:57:02;12.68;;;5.55;;
45366;SDS011;31100;55.848;37.636;2023-03-20T09:59:29;15.43;;;6.25;;
45366;SDS011;31100;55.848;37.636;2023-03-20T10:02:05;16.25;;;6.18;;
45366;SDS011;31100;55.848;37.636;2023-03-20T10:04:36;10.27;;;5.53;;
45366;SDS011;31100;55.848;37.636;2023-03-20T10:07:02;12.85;;;5.97;;
45366;SDS011;31100;55.848;37.636;2023-03-20T10:09:29;16.02;;;6.78;;
45366;SDS011;31100;55.848;37.636;2023-03-20T10:19:57;15.45;;;7.80;;
45366;SDS011;31100;55.848;37.636;2023-03-20T10:22:31;16.77;;;7.88;;
45366;SDS011;31100;55.848;37.636;2023-03-20T10:27:30;12.00;;;6.50;;
45366;SDS011;31100;55.848;37.636;2023-03-20T10:30:17;15.40;;;6.55;;
45366;SDS011;31100;55.848;37.636;2023-03-20T10:33:27;13.18;;;6.03;;
45366;SDS011;31100;55.848;37.636;2023-03-20T10:38:16;14.02;;;6.90;;
45366;SDS011;31100;55.848;37.636;2023-03-20T10:40:50;11.30;;;6.60;;
45366;SDS011;31100;55.848;37.636;2023-03-20T10:43:19;21.95;;;6.30;;
45366;SDS011;31100;55.848;37.636;2023-03-20T10:45:50;8.43;;;4.72;;
45366;SDS011;31100;55.848;37.636;2023-03-20T10:48:31;10.98;;;5.03;;
45366;SDS011;31100;55.848;37.636;2023-03-20T10:51:00;11.15;;;4.93;;
45366;SDS011;31100;55.848;37.636;2023-03-20T10:56:17;8.45;;;4.82;;
45366;SDS011;31100;55.848;37.636;2023-03-20T10:58:53;10.20;;;4.47;;
45366;SDS011;31100;55.848;37.636;2023-03-20T11:01:22;11.90;;;5.20;;
45366;SDS011;31100;55.848;37.636;2023-03-20T11:03:48;8.95;;;4.30;;
45366;SDS011;31100;55.848;37.636;2023-03-20T11:06:17;13.70;;;5.53;;
45366;SDS011;31100;55.848;37.636;2023-03-20T11:08:51;8.93;;;4.50;;
45366;SDS011;31100;55.848;37.636;2023-03-20T11:11:23;10.45;;;5.15;;
45366;SDS011;31100;55.848;37.636;2023-03-20T11:13:52;7.78;;;4.43;;
45366;SDS011;31100;55.848;37.636;2023-03-20T11:16:30;9.45;;;5.35;;
45366;SDS011;31100;55.848;37.636;2023-03-20T11:19:07;11.10;;;5.05;;
45366;SDS011;31100;55.848;37.636;2023-03-20T11:21:34;15.55;;;7.15;;
45366;SDS011;31100;55.848;37.636;2023-03-20T11:24:33;11.52;;;5.88;;
45366;SDS011;31100;55.848;37.636;2023-03-20T11:27:05;9.65;;;5.00;;
45366;SDS011;31100;55.848;37.636;2023-03-20T11:29:42;12.98;;;5.85;;
45366;SDS011;31100;55.848;37.636;2023-03-20T11:34:55;12.07;;;5.00;;
45366;SDS011;31100;55.848;37.636;2023-03-20T11:37:23;10.65;;;5.20;;
45366;SDS011;31100;55.848;37.636;2023-03-20T11:39:57;13.48;;;5.65;;
45366;SDS011;31100;55.848;37.636;2023-03-20T11:42:24;14.05;;;5.85;;
45366;SDS011;31100;55.848;37.636;2023-03-20T11:44:59;11.43;;;4.90;;
45366;SDS011;31100;55.848;37.636;2023-03-20T11:47:40;10.88;;;5.28;;
45366;SDS011;31100;55.848;37.636;2023-03-20T11:50:13;12.63;;;5.55;;
45366;SDS011;31100;55.848;37.636;2023-03-20T11:52:50;10.88;;;5.30;;
45366;SDS011;31100;55.848;37.636;2023-03-20T11:55:22;13.27;;;5.75;;
45366;SDS011;31100;55.848;37.636;2023-03-20T11:57:54;9.98;;;5.03;;
45366;SDS011;31100;55.848;37.636;2023-03-20T12:00:25;11.70;;;6.00;;
45366;SDS011;31100;55.848;37.636;2023-03-20T12:03:02;10.45;;;5.03;;
45366;SDS011;31100;55.848;37.636;2023-03-20T12:05:35;14.48;;;6.05;;
45366;SDS011;31100;55.848;37.636;2023-03-20T12:10:35;12.27;;;5.65;;
45366;SDS011;31100;55.848;37.636;2023-03-20T12:13:16;13.10;;;5.45;;
45366;SDS011;31100;55.848;37.636;2023-03-20T12:15:50;13.73;;;5.78;;
45366;SDS011;31100;55.848;37.636;2023-03-20T12:18:26;18.10;;;6.10;;
45366;SDS011;31100;55.848;37.636;2023-03-20T12:28:57;12.90;;;5.82;;
45366;SDS011;31100;55.848;37.636;2023-03-20T12:33:58;14.50;;;6.30;;
45366;SDS011;31100;55.848;37.636;2023-03-20T12:38:56;15.73;;;7.07;;
45366;SDS011;31100;55.848;37.636;2023-03-20T13:00:33;9.55;;;4.85;;
45366;SDS011;31100;55.848;37.636;2023-03-20T13:06:13;11.68;;;5.10;;
45366;SDS011;31100;55.848;37.636;2023-03-20T13:08:55;13.10;;;5.07;;
45366;SDS011;31100;55.848;37.636;2023-03-20T13:24:51;14.20;;;5.60;;
45366;SDS011;31100;55.848;37.636;2023-03-20T13:30:27;9.45;;;5.60;;
45366;SDS011;31100;55.848;37.636;2023-03-20T13:35:31;26.35;;;6.97;;
45366;SDS011;31100;55.848;37.636;2023-03-20T13:38:00;13.25;;;6.78;;
45366;SDS011;31100;55.848;37.636;2023-03-20T13:45:36;13.20;;;6.97;;
45366;SDS011;31100;55.848;37.636;2023-03-20T13:48:18;15.40;;;6.55;;
45366;SDS011;31100;55.848;37.636;2023-03-20T14:01:56;14.25;;;6.47;;
45366;SDS011;31100;55.848;37.636;2023-03-20T14:04:30;14.20;;;7.30;;
45366;SDS011;31100;55.848;37.636;2023-03-20T14:06:57;24.48;;;7.70;;
45366;SDS011;31100;55.848;37.636;2023-03-20T14:11:48;12.27;;;6.72;;
45366;SDS011;31100;55.848;37.636;2023-03-20T14:17:05;14.52;;;6.88;;
45366;SDS011;31100;55.848;37.636;2023-03-20T14:19:32;15.90;;;6.28;;
45366;SDS011;31100;55.848;37.636;2023-03-20T14:22:00;11.18;;;5.47;;
45366;SDS011;31100;55.848;37.636;2023-03-20T14:24:26;12.32;;;6.15;;
45366;SDS011;31100;55.848;37.636;2023-03-20T14:26:56;11.93;;;6.35;;
45366;SDS011;31100;55.848;37.636;2023-03-20T14:29:36;15.45;;;6.35;;
45366;SDS011;31100;55.848;37.636;2023-03-20T14:32:03;11.82;;;6.05;;
45366;SDS011;31100;55.848;37.636;2023-03-20T14:34:46;15.07;;;6.38;;
45366;SDS011;31100;55.848;37.636;2023-03-20T14:37:32;12.60;;;6.53;;
45366;SDS011;31100;55.848;37.636;2023-03-20T14:40:20;13.88;;;5.93;;
45366;SDS011;31100;55.848;37.636;2023-03-20T14:42:49;15.93;;;6.05;;
45366;SDS011;31100;55.848;37.636;2023-03-20T14:56:46;12.55;;;5.45;;
45366;SDS011;31100;55.848;37.636;2023-03-20T14:59:13;18.08;;;5.82;;
45366;SDS011;31100;55.848;37.636;2023-03-20T15:01:57;14.88;;;6.38;;
45366;SDS011;31100;55.848;37.636;2023-03-20T15:07:03;12.45;;;5.72;;
45366;SDS011;31100;55.848;37.636;2023-03-20T15:09:31;15.43;;;6.18;;
45366;SDS011;31100;55.848;37.636;2023-03-20T15:11:59;16.33;;;6.78;;
45366;SDS011;31100;55.848;37.636;2023-03-20T15:14:30;18.88;;;7.85;;
45366;SDS011;31100;55.848;37.636;2023-03-20T15:16:59;17.42;;;8.02;;
45366;SDS011;31100;55.848;37.636;2023-03-20T15:19:26;17.80;;;7.68;;
45366;SDS011;31100;55.848;37.636;2023-03-20T15:21:52;17.42;;;8.50;;
45366;SDS011;31100;55.848;37.636;2023-03-20T15:24:22;20.23;;;9.93;;
45366;SDS011;31100;55.848;37.636;2023-03-20T15:26:53;16.17;;;8.85;;
45366;SDS011;31100;55.848;37.636;2023-03-20T15:29:22;20.35;;;9.75;;
45366;SDS011;31100;55.848;37.636;2023-03-20T15:31:54;17.48;;;10.23;;
45366;SDS011;31100;55.848;37.636;2023-03-20T15:34:25;22.38;;;9.82;;
45366;SDS011;31100;55.848;37.636;2023-03-20T15:36:54;18.20;;;9.30;;
45366;SDS011;31100;55.848;37.636;2023-03-20T15:39:22;15.55;;;9.30;;
45366;SDS011;31100;55.848;37.636;2023-03-20T15:41:56;20.25;;;9.68;;
45366;SDS011;31100;55.848;37.636;2023-03-20T15:47:03;23.77;;;9.13;;
45366;SDS011;31100;55.848;37.636;2023-03-20T15:49:37;18.25;;;8.40;;
45366;SDS011;31100;55.848;37.636;2023-03-20T15:54:59;21.95;;;8.95;;
45366;SDS011;31100;55.848;37.636;2023-03-20T15:57:30;19.23;;;8.90;;
45366;SDS011;31100;55.848;37.636;2023-03-20T15:59:57;15.75;;;8.02;;
45366;SDS011;31100;55.848;37.636;2023-03-20T16:02:23;16.98;;;7.90;;
45366;SDS011;31100;55.848;37.636;2023-03-20T16:04:50;21.00;;;9.50;;
45366;SDS011;31100;55.848;37.636;2023-03-20T16:07:19;16.48;;;8.70;;
45366;SDS011;31100;55.848;37.636;2023-03-20T16:09:51;18.42;;;9.00;;
45366;SDS011;31100;55.848;37.636;2023-03-20T16:12:17;16.42;;;8.00;;
45366;SDS011;31100;55.848;37.636;2023-03-20T16:14:43;19.75;;;8.15;;
45366;SDS011;31100;55.848;37.636;2023-03-20T16:17:11;14.15;;;8.23;;
45366;SDS011;31100;55.848;37.636;2023-03-20T16:19:37;16.95;;;8.75;;
45366;SDS011;31100;55.848;37.636;2023-03-20T16:24:50;18.70;;;8.10;;
45366;SDS011;31100;55.848;37.636;2023-03-20T16:27:25;15.93;;;8.30;;
45366;SDS011;31100;55.848;37.636;2023-03-20T16:29:53;24.17;;;11.63;;
45366;SDS011;31100;55.848;37.636;2023-03-20T16:32:22;18.30;;;8.48;;
45366;SDS011;31100;55.848;37.636;2023-03-20T16:34:51;16.67;;;7.82;;
45366;SDS011;31100;55.848;37.636;2023-03-20T16:37:23;18.98;;;9.40;;
45366;SDS011;31100;55.848;37.636;2023-03-20T16:40:01;18.33;;;8.40;;
45366;SDS011;31100;55.848;37.636;2023-03-20T16:42:30;16.27;;;8.38;;
45366;SDS011;31100;55.848;37.636;2023-03-20T16:44:56;19.38;;;8.75;;
45366;SDS011;31100;55.848;37.636;2023-03-20T16:47:23;18.70;;;8.25;;
45366;SDS011;31100;55.848;37.636;2023-03-20T16:49:50;18.40;;;8.73;;
45366;SDS011;31100;55.848;37.636;2023-03-20T16:52:26;18.02;;;7.75;;
45366;SDS011;31100;55.848;37.636;2023-03-20T16:54:56;17.15;;;8.57;;
45366;SDS011;31100;55.848;37.636;2023-03-20T16:57:23;19.05;;;7.75;;
45366;SDS011;31100;55.848;37.636;2023-03-20T16:59:50;18.25;;;7.68;;
45366;SDS011;31100;55.848;37.636;2023-03-20T17:02:26;17.90;;;8.73;;
45366;SDS011;31100;55.848;37.636;2023-03-20T17:04:54;19.35;;;7.90;;
45366;SDS011;31100;55.848;37.636;2023-03-20T17:07:22;15.07;;;7.55;;
45366;SDS011;31100;55.848;37.636;2023-03-20T17:10:16;16.33;;;8.15;;
45366;SDS011;31100;55.848;37.636;2023-03-20T17:12:42;14.00;;;7.47;;
45366;SDS011;31100;55.848;37.636;2023-03-20T17:15:22;17.50;;;7.43;;
45366;SDS011;31100;55.848;37.636;2023-03-20T17:17:48;14.77;;;6.55;;
45366;SDS011;31100;55.848;37.636;2023-03-20T17:20:19;12.30;;;6.00;;
45366;SDS011;31100;55.848;37.636;2023-03-20T17:22:46;12.57;;;6.22;;